sensor_id;sensor_type;location;lat;lon;timestamp;P1;durP1;ratioP1;P2;durP2;ratioP2
74908;SDS011;63468;52.058;4.824;2023-04-03T00:00:42;6.70;;;4.25;;
74908;SDS011;63468;52.058;4.824;2023-04-03T00:03:08;8.52;;;3.97;;
74908;SDS011;63468;52.058;4.824;2023-04-03T00:05:33;6.68;;;3.92;;
74908;SDS011;63468;52.058;4.824;2023-04-03T00:07:59;9.25;;;4.68;;
74908;SDS011;63468;52.058;4.824;2023-04-03T00:10:26;8.02;;;4.47;;
74908;SDS011;63468;52.058;4.824;2023-04-03T00:12:52;6.72;;;4.25;;
74908;SDS011;63468;52.058;4.824;2023-04-03T00:15:17;8.57;;;4.40;;
74908;SDS011;63468;52.058;4.824;2023-04-03T00:17:43;7.47;;;4.10;;
74908;SDS011;63468;52.058;4.824;2023-04-03T00:20:08;6.70;;;4.20;;
74908;SDS011;63468;52.058;4.824;2023-04-03T00:22:34;6.80;;;4.22;;
74908;SDS011;63468;52.058;4.824;2023-04-03T00:24:59;7.35;;;4.43;;
74908;SDS011;63468;52.058;4.824;2023-04-03T00:27:25;6.45;;;3.85;;
74908;SDS011;63468;52.058;4.824;2023-04-03T00:29:50;7.78;;;4.57;;
74908;SDS011;63468;52.058;4.824;2023-04-03T00:32:15;7.85;;;4.60;;
74908;SDS011;63468;52.058;4.824;2023-04-03T00:34:41;7.05;;;4.28;;
74908;SDS011;63468;52.058;4.824;2023-04-03T00:37:06;7.38;;;4.53;;
74908;SDS011;63468;52.058;4.824;2023-04-03T00:39:31;12.18;;;4.18;;
74908;SDS011;63468;52.058;4.824;2023-04-03T00:41:56;7.03;;;4.05;;
74908;SDS011;63468;52.058;4.824;2023-04-03T00:46:53;7.90;;;4.18;;
74908;SDS011;63468;52.058;4.824;2023-04-03T00:49:19;7.72;;;4.05;;
74908;SDS011;63468;52.058;4.824;2023-04-03T00:51:44;7.68;;;4.43;;
74908;SDS011;63468;52.058;4.824;2023-04-03T00:54:10;9.98;;;4.90;;
74908;SDS011;63468;52.058;4.824;2023-04-03T00:56:35;11.02;;;4.53;;
74908;SDS011;63468;52.058;4.824;2023-04-03T00:59:02;8.13;;;4.18;;
74908;SDS011;63468;52.058;4.824;2023-04-03T01:01:39;7.65;;;4.47;;
74908;SDS011;63468;52.058;4.824;2023-04-03T01:04:06;7.32;;;4.13;;
74908;SDS011;63468;52.058;4.824;2023-04-03T01:07:02;8.05;;;5.05;;
74908;SDS011;63468;52.058;4.824;2023-04-03T01:09:30;7.97;;;4.00;;
74908;SDS011;63468;52.058;4.824;2023-04-03T01:12:12;6.65;;;4.28;;
74908;SDS011;63468;52.058;4.824;2023-04-03T01:14:43;10.25;;;4.60;;
74908;SDS011;63468;52.058;4.824;2023-04-03T01:17:27;7.70;;;4.45;;
74908;SDS011;63468;52.058;4.824;2023-04-03T01:19:57;6.30;;;3.90;;
74908;SDS011;63468;52.058;4.824;2023-04-03T01:22:29;7.07;;;4.60;;
74908;SDS011;63468;52.058;4.824;2023-04-03T01:25:00;7.68;;;4.28;;
74908;SDS011;63468;52.058;4.824;2023-04-03T01:27:26;6.65;;;3.67;;
74908;SDS011;63468;52.058;4.824;2023-04-03T01:29:52;8.77;;;4.50;;
74908;SDS011;63468;52.058;4.824;2023-04-03T01:32:17;7.60;;;4.60;;
74908;SDS011;63468;52.058;4.824;2023-04-03T01:34:42;6.93;;;4.35;;
74908;SDS011;63468;52.058;4.824;2023-04-03T01:37:08;7.50;;;4.20;;
74908;SDS011;63468;52.058;4.824;2023-04-03T01:39:33;8.02;;;4.60;;
74908;SDS011;63468;52.058;4.824;2023-04-03T01:41:58;7.38;;;3.92;;
74908;SDS011;63468;52.058;4.824;2023-04-03T01:44:24;8.88;;;4.45;;
74908;SDS011;63468;52.058;4.824;2023-04-03T01:46:49;6.40;;;3.53;;
74908;SDS011;63468;52.058;4.824;2023-04-03T01:49:15;10.60;;;4.20;;
74908;SDS011;63468;52.058;4.824;2023-04-03T01:51:40;8.10;;;4.13;;
74908;SDS011;63468;52.058;4.824;2023-04-03T01:54:05;9.40;;;4.22;;
74908;SDS011;63468;52.058;4.824;2023-04-03T01:56:30;9.13;;;4.20;;
74908;SDS011;63468;52.058;4.824;2023-04-03T01:58:56;12.10;;;4.68;;
74908;SDS011;63468;52.058;4.824;2023-04-03T02:01:21;7.82;;;4.38;;
74908;SDS011;63468;52.058;4.824;2023-04-03T02:03:46;11.73;;;4.38;;
74908;SDS011;63468;52.058;4.824;2023-04-03T02:06:12;8.68;;;3.90;;
74908;SDS011;63468;52.058;4.824;2023-04-03T02:08:37;6.63;;;3.90;;
74908;SDS011;63468;52.058;4.824;2023-04-03T02:11:02;7.82;;;4.03;;
74908;SDS011;63468;52.058;4.824;2023-04-03T02:13:28;9.32;;;4.20;;
74908;SDS011;63468;52.058;4.824;2023-04-03T02:15:53;9.32;;;4.10;;
74908;SDS011;63468;52.058;4.824;2023-04-03T02:18:18;7.65;;;3.85;;
74908;SDS011;63468;52.058;4.824;2023-04-03T02:20:44;7.70;;;4.13;;
74908;SDS011;63468;52.058;4.824;2023-04-03T02:23:09;8.40;;;4.40;;
74908;SDS011;63468;52.058;4.824;2023-04-03T02:25:34;12.85;;;4.50;;
74908;SDS011;63468;52.058;4.824;2023-04-03T02:28:00;7.97;;;3.90;;
74908;SDS011;63468;52.058;4.824;2023-04-03T02:30:25;9.43;;;3.90;;
74908;SDS011;63468;52.058;4.824;2023-04-03T02:32:51;10.13;;;4.63;;
74908;SDS011;63468;52.058;4.824;2023-04-03T02:35:16;6.78;;;3.58;;
74908;SDS011;63468;52.058;4.824;2023-04-03T02:37:41;9.23;;;4.10;;
74908;SDS011;63468;52.058;4.824;2023-04-03T02:40:07;8.95;;;4.50;;
74908;SDS011;63468;52.058;4.824;2023-04-03T02:42:32;8.35;;;4.15;;
74908;SDS011;63468;52.058;4.824;2023-04-03T02:44:58;9.98;;;4.38;;
74908;SDS011;63468;52.058;4.824;2023-04-03T02:47:25;7.07;;;3.80;;
74908;SDS011;63468;52.058;4.824;2023-04-03T02:49:51;7.35;;;3.90;;
74908;SDS011;63468;52.058;4.824;2023-04-03T02:52:17;9.75;;;4.80;;
74908;SDS011;63468;52.058;4.824;2023-04-03T02:54:43;12.25;;;4.43;;
74908;SDS011;63468;52.058;4.824;2023-04-03T02:57:08;8.88;;;4.13;;
74908;SDS011;63468;52.058;4.824;2023-04-03T02:59:34;11.63;;;4.75;;
74908;SDS011;63468;52.058;4.824;2023-04-03T03:02:00;9.38;;;4.45;;
74908;SDS011;63468;52.058;4.824;2023-04-03T03:04:25;8.60;;;3.95;;
74908;SDS011;63468;52.058;4.824;2023-04-03T03:06:51;8.25;;;4.57;;
74908;SDS011;63468;52.058;4.824;2023-04-03T03:09:17;8.30;;;4.20;;
74908;SDS011;63468;52.058;4.824;2023-04-03T03:11:42;9.73;;;4.55;;
74908;SDS011;63468;52.058;4.824;2023-04-03T03:14:07;7.13;;;3.70;;
74908;SDS011;63468;52.058;4.824;2023-04-03T03:16:33;10.05;;;4.68;;
74908;SDS011;63468;52.058;4.824;2023-04-03T03:18:58;9.27;;;4.70;;
74908;SDS011;63468;52.058;4.824;2023-04-03T03:21:23;9.90;;;4.07;;
74908;SDS011;63468;52.058;4.824;2023-04-03T03:23:49;10.35;;;4.25;;
74908;SDS011;63468;52.058;4.824;2023-04-03T03:26:14;11.45;;;4.15;;
74908;SDS011;63468;52.058;4.824;2023-04-03T03:28:39;10.27;;;4.32;;
74908;SDS011;63468;52.058;4.824;2023-04-03T03:31:06;7.85;;;4.05;;
74908;SDS011;63468;52.058;4.824;2023-04-03T03:33:31;10.15;;;3.88;;
74908;SDS011;63468;52.058;4.824;2023-04-03T03:35:57;9.18;;;3.25;;
74908;SDS011;63468;52.058;4.824;2023-04-03T03:38:22;7.53;;;3.90;;
74908;SDS011;63468;52.058;4.824;2023-04-03T03:40:48;7.50;;;3.90;;
74908;SDS011;63468;52.058;4.824;2023-04-03T03:43:14;9.85;;;4.43;;
74908;SDS011;63468;52.058;4.824;2023-04-03T03:45:40;10.43;;;3.97;;
74908;SDS011;63468;52.058;4.824;2023-04-03T03:48:06;9.50;;;4.20;;
74908;SDS011;63468;52.058;4.824;2023-04-03T03:50:31;8.13;;;4.35;;
74908;SDS011;63468;52.058;4.824;2023-04-03T03:52:56;7.68;;;4.10;;
74908;SDS011;63468;52.058;4.824;2023-04-03T03:55:22;7.50;;;3.70;;
74908;SDS011;63468;52.058;4.824;2023-04-03T03:57:48;10.80;;;4.35;;
74908;SDS011;63468;52.058;4.824;2023-04-03T04:00:13;9.82;;;3.92;;
74908;SDS011;63468;52.058;4.824;2023-04-03T04:02:39;9.95;;;4.32;;
74908;SDS011;63468;52.058;4.824;2023-04-03T04:05:05;11.85;;;4.68;;
74908;SDS011;63468;52.058;4.824;2023-04-03T04:07:31;9.77;;;4.32;;
74908;SDS011;63468;52.058;4.824;2023-04-03T04:09:56;7.85;;;3.42;;
74908;SDS011;63468;52.058;4.824;2023-04-03T04:12:21;11.93;;;3.63;;
74908;SDS011;63468;52.058;4.824;2023-04-03T04:14:47;9.65;;;4.13;;
74908;SDS011;63468;52.058;4.824;2023-04-03T04:17:12;8.68;;;3.85;;
74908;SDS011;63468;52.058;4.824;2023-04-03T04:19:38;9.15;;;3.58;;
74908;SDS011;63468;52.058;4.824;2023-04-03T04:22:03;8.60;;;3.92;;
74908;SDS011;63468;52.058;4.824;2023-04-03T04:24:29;14.73;;;4.50;;
74908;SDS011;63468;52.058;4.824;2023-04-03T04:26:54;7.80;;;3.45;;
74908;SDS011;63468;52.058;4.824;2023-04-03T04:29:20;7.60;;;3.72;;
74908;SDS011;63468;52.058;4.824;2023-04-03T04:31:45;9.20;;;3.67;;
74908;SDS011;63468;52.058;4.824;2023-04-03T04:34:10;8.48;;;4.03;;
74908;SDS011;63468;52.058;4.824;2023-04-03T04:36:37;9.68;;;3.88;;
74908;SDS011;63468;52.058;4.824;2023-04-03T04:39:03;8.77;;;3.67;;
74908;SDS011;63468;52.058;4.824;2023-04-03T04:41:28;8.27;;;4.13;;
74908;SDS011;63468;52.058;4.824;2023-04-03T04:43:53;8.25;;;4.10;;
74908;SDS011;63468;52.058;4.824;2023-04-03T04:46:19;8.02;;;3.65;;
74908;SDS011;63468;52.058;4.824;2023-04-03T04:48:44;8.35;;;3.75;;
74908;SDS011;63468;52.058;4.824;2023-04-03T04:51:10;9.52;;;3.60;;
74908;SDS011;63468;52.058;4.824;2023-04-03T04:53:36;11.65;;;3.72;;
74908;SDS011;63468;52.058;4.824;2023-04-03T04:56:01;7.63;;;3.88;;
74908;SDS011;63468;52.058;4.824;2023-04-03T04:58:26;8.07;;;3.55;;
74908;SDS011;63468;52.058;4.824;2023-04-03T05:00:58;10.00;;;4.47;;
74908;SDS011;63468;52.058;4.824;2023-04-03T05:03:30;9.52;;;4.43;;
74908;SDS011;63468;52.058;4.824;2023-04-03T05:05:56;8.50;;;4.05;;
74908;SDS011;63468;52.058;4.824;2023-04-03T05:08:21;8.13;;;3.17;;
74908;SDS011;63468;52.058;4.824;2023-04-03T05:10:47;9.73;;;4.10;;
74908;SDS011;63468;52.058;4.824;2023-04-03T05:13:12;9.13;;;4.00;;
74908;SDS011;63468;52.058;4.824;2023-04-03T05:15:38;9.10;;;4.38;;
74908;SDS011;63468;52.058;4.824;2023-04-03T05:18:03;10.02;;;3.63;;
74908;SDS011;63468;52.058;4.824;2023-04-03T05:20:29;14.23;;;4.60;;
74908;SDS011;63468;52.058;4.824;2023-04-03T05:22:55;9.65;;;3.53;;
74908;SDS011;63468;52.058;4.824;2023-04-03T05:25:20;10.50;;;3.78;;
74908;SDS011;63468;52.058;4.824;2023-04-03T05:27:46;9.80;;;3.63;;
74908;SDS011;63468;52.058;4.824;2023-04-03T05:30:11;8.27;;;3.90;;
74908;SDS011;63468;52.058;4.824;2023-04-03T05:32:37;9.68;;;4.15;;
74908;SDS011;63468;52.058;4.824;2023-04-03T05:35:02;8.75;;;3.75;;
74908;SDS011;63468;52.058;4.824;2023-04-03T05:37:27;13.23;;;4.72;;
74908;SDS011;63468;52.058;4.824;2023-04-03T05:39:53;9.63;;;3.97;;
74908;SDS011;63468;52.058;4.824;2023-04-03T05:42:18;9.73;;;4.40;;
74908;SDS011;63468;52.058;4.824;2023-04-03T05:44:43;10.70;;;4.13;;
74908;SDS011;63468;52.058;4.824;2023-04-03T05:47:11;9.88;;;3.95;;
74908;SDS011;63468;52.058;4.824;2023-04-03T05:49:36;8.45;;;3.83;;
74908;SDS011;63468;52.058;4.824;2023-04-03T05:52:05;9.38;;;3.40;;
74908;SDS011;63468;52.058;4.824;2023-04-03T05:54:31;11.10;;;4.60;;
74908;SDS011;63468;52.058;4.824;2023-04-03T05:56:56;13.18;;;4.55;;
74908;SDS011;63468;52.058;4.824;2023-04-03T05:59:21;9.00;;;4.47;;
74908;SDS011;63468;52.058;4.824;2023-04-03T06:01:47;8.13;;;3.60;;
74908;SDS011;63468;52.058;4.824;2023-04-03T06:04:13;10.23;;;4.75;;
74908;SDS011;63468;52.058;4.824;2023-04-03T06:06:52;8.40;;;4.82;;
74908;SDS011;63468;52.058;4.824;2023-04-03T06:09:19;11.55;;;4.88;;
74908;SDS011;63468;52.058;4.824;2023-04-03T06:11:46;9.75;;;4.28;;
74908;SDS011;63468;52.058;4.824;2023-04-03T06:14:11;10.32;;;3.92;;
74908;SDS011;63468;52.058;4.824;2023-04-03T06:16:37;8.82;;;3.85;;
74908;SDS011;63468;52.058;4.824;2023-04-03T06:19:03;11.07;;;5.22;;
74908;SDS011;63468;52.058;4.824;2023-04-03T06:21:29;9.00;;;4.50;;
74908;SDS011;63468;52.058;4.824;2023-04-03T06:23:55;7.47;;;3.70;;
74908;SDS011;63468;52.058;4.824;2023-04-03T06:26:20;9.73;;;4.32;;
74908;SDS011;63468;52.058;4.824;2023-04-03T06:28:45;12.85;;;5.45;;
74908;SDS011;63468;52.058;4.824;2023-04-03T06:31:11;11.18;;;4.85;;
74908;SDS011;63468;52.058;4.824;2023-04-03T06:33:36;10.65;;;4.55;;
74908;SDS011;63468;52.058;4.824;2023-04-03T06:36:03;7.82;;;4.32;;
74908;SDS011;63468;52.058;4.824;2023-04-03T06:38:29;9.55;;;4.57;;
74908;SDS011;63468;52.058;4.824;2023-04-03T06:40:55;8.55;;;4.35;;
74908;SDS011;63468;52.058;4.824;2023-04-03T06:43:20;8.38;;;4.50;;
74908;SDS011;63468;52.058;4.824;2023-04-03T06:45:46;8.88;;;3.92;;
74908;SDS011;63468;52.058;4.824;2023-04-03T06:48:12;10.40;;;4.65;;
74908;SDS011;63468;52.058;4.824;2023-04-03T06:50:37;12.10;;;5.03;;
74908;SDS011;63468;52.058;4.824;2023-04-03T06:53:03;8.93;;;4.32;;
74908;SDS011;63468;52.058;4.824;2023-04-03T06:55:28;8.35;;;4.88;;
74908;SDS011;63468;52.058;4.824;2023-04-03T06:57:54;8.77;;;4.88;;
74908;SDS011;63468;52.058;4.824;2023-04-03T07:00:20;8.80;;;5.07;;
74908;SDS011;63468;52.058;4.824;2023-04-03T07:02:45;10.60;;;5.03;;
74908;SDS011;63468;52.058;4.824;2023-04-03T07:05:11;17.70;;;5.20;;
74908;SDS011;63468;52.058;4.824;2023-04-03T07:07:37;8.75;;;4.85;;
74908;SDS011;63468;52.058;4.824;2023-04-03T07:10:02;9.43;;;4.50;;
74908;SDS011;63468;52.058;4.824;2023-04-03T07:12:28;9.93;;;4.70;;
74908;SDS011;63468;52.058;4.824;2023-04-03T07:14:53;12.23;;;5.07;;
74908;SDS011;63468;52.058;4.824;2023-04-03T07:17:19;8.93;;;4.80;;
74908;SDS011;63468;52.058;4.824;2023-04-03T07:19:44;9.27;;;6.18;;
74908;SDS011;63468;52.058;4.824;2023-04-03T07:22:10;7.95;;;6.38;;
74908;SDS011;63468;52.058;4.824;2023-04-03T07:24:36;7.75;;;6.60;;
74908;SDS011;63468;52.058;4.824;2023-04-03T07:27:01;12.15;;;7.05;;
74908;SDS011;63468;52.058;4.824;2023-04-03T07:29:27;9.43;;;7.10;;
74908;SDS011;63468;52.058;4.824;2023-04-03T07:31:53;9.63;;;7.30;;
74908;SDS011;63468;52.058;4.824;2023-04-03T07:34:20;9.15;;;8.18;;
74908;SDS011;63468;52.058;4.824;2023-04-03T07:36:45;9.70;;;7.65;;
74908;SDS011;63468;52.058;4.824;2023-04-03T07:39:10;9.02;;;7.38;;
74908;SDS011;63468;52.058;4.824;2023-04-03T07:41:36;12.10;;;7.07;;
74908;SDS011;63468;52.058;4.824;2023-04-03T07:44:02;15.02;;;7.45;;
74908;SDS011;63468;52.058;4.824;2023-04-03T07:46:27;9.35;;;6.88;;
74908;SDS011;63468;52.058;4.824;2023-04-03T07:48:53;7.75;;;6.97;;
74908;SDS011;63468;52.058;4.824;2023-04-03T07:51:18;9.32;;;7.13;;
74908;SDS011;63468;52.058;4.824;2023-04-03T07:53:44;10.82;;;7.50;;
74908;SDS011;63468;52.058;4.824;2023-04-03T07:56:09;9.75;;;7.57;;
74908;SDS011;63468;52.058;4.824;2023-04-03T07:58:35;14.60;;;7.72;;
74908;SDS011;63468;52.058;4.824;2023-04-03T08:01:01;9.05;;;7.03;;
74908;SDS011;63468;52.058;4.824;2023-04-03T08:03:26;9.73;;;7.07;;
74908;SDS011;63468;52.058;4.824;2023-04-03T08:05:51;7.93;;;7.13;;
74908;SDS011;63468;52.058;4.824;2023-04-03T08:08:19;8.88;;;7.10;;
74908;SDS011;63468;52.058;4.824;2023-04-03T08:10:48;10.25;;;7.18;;
74908;SDS011;63468;52.058;4.824;2023-04-03T08:13:15;9.68;;;7.30;;
74908;SDS011;63468;52.058;4.824;2023-04-03T08:15:40;13.20;;;8.40;;
74908;SDS011;63468;52.058;4.824;2023-04-03T08:18:05;12.55;;;6.90;;
74908;SDS011;63468;52.058;4.824;2023-04-03T08:20:31;9.73;;;7.75;;
74908;SDS011;63468;52.058;4.824;2023-04-03T08:22:56;10.48;;;6.82;;
74908;SDS011;63468;52.058;4.824;2023-04-03T08:25:22;10.35;;;7.70;;
74908;SDS011;63468;52.058;4.824;2023-04-03T08:27:47;8.93;;;7.13;;
74908;SDS011;63468;52.058;4.824;2023-04-03T08:30:12;9.35;;;7.15;;
74908;SDS011;63468;52.058;4.824;2023-04-03T08:32:38;8.77;;;7.55;;
74908;SDS011;63468;52.058;4.824;2023-04-03T08:35:06;8.00;;;7.05;;
74908;SDS011;63468;52.058;4.824;2023-04-03T08:37:34;9.80;;;7.00;;
74908;SDS011;63468;52.058;4.824;2023-04-03T08:40:01;9.50;;;7.60;;
74908;SDS011;63468;52.058;4.824;2023-04-03T08:45:26;9.77;;;6.97;;
74908;SDS011;63468;52.058;4.824;2023-04-03T08:50:43;7.80;;;7.00;;
74908;SDS011;63468;52.058;4.824;2023-04-03T08:53:20;7.93;;;7.13;;
74908;SDS011;63468;52.058;4.824;2023-04-03T08:55:49;8.40;;;6.95;;
74908;SDS011;63468;52.058;4.824;2023-04-03T08:58:16;11.20;;;7.00;;
74908;SDS011;63468;52.058;4.824;2023-04-03T09:00:45;7.75;;;6.95;;
74908;SDS011;63468;52.058;4.824;2023-04-03T09:03:29;7.88;;;6.60;;
74908;SDS011;63468;52.058;4.824;2023-04-03T09:06:15;9.57;;;7.18;;
74908;SDS011;63468;52.058;4.824;2023-04-03T09:14:26;8.70;;;7.38;;
74908;SDS011;63468;52.058;4.824;2023-04-03T09:16:59;10.05;;;7.43;;
74908;SDS011;63468;52.058;4.824;2023-04-03T09:21:51;7.57;;;6.82;;
74908;SDS011;63468;52.058;4.824;2023-04-03T09:24:17;8.75;;;6.97;;
74908;SDS011;63468;52.058;4.824;2023-04-03T09:26:48;10.82;;;7.30;;
74908;SDS011;63468;52.058;4.824;2023-04-03T09:29:17;9.32;;;7.03;;
74908;SDS011;63468;52.058;4.824;2023-04-03T09:31:46;9.43;;;6.85;;
74908;SDS011;63468;52.058;4.824;2023-04-03T09:34:22;8.15;;;7.15;;
74908;SDS011;63468;52.058;4.824;2023-04-03T09:36:59;9.63;;;7.53;;
74908;SDS011;63468;52.058;4.824;2023-04-03T09:39:31;9.10;;;7.65;;
74908;SDS011;63468;52.058;4.824;2023-04-03T09:42:01;8.30;;;7.47;;
74908;SDS011;63468;52.058;4.824;2023-04-03T09:44:34;9.27;;;7.55;;
74908;SDS011;63468;52.058;4.824;2023-04-03T09:47:16;7.90;;;7.10;;
74908;SDS011;63468;52.058;4.824;2023-04-03T09:52:42;9.25;;;7.60;;
74908;SDS011;63468;52.058;4.824;2023-04-03T09:57:42;9.20;;;7.43;;
74908;SDS011;63468;52.058;4.824;2023-04-03T10:00:25;8.65;;;7.50;;
74908;SDS011;63468;52.058;4.824;2023-04-03T10:02:53;8.43;;;7.53;;
74908;SDS011;63468;52.058;4.824;2023-04-03T10:08:14;8.13;;;7.32;;
74908;SDS011;63468;52.058;4.824;2023-04-03T10:10:46;9.25;;;8.07;;
74908;SDS011;63468;52.058;4.824;2023-04-03T10:13:14;8.48;;;7.68;;
74908;SDS011;63468;52.058;4.824;2023-04-03T10:16:06;9.25;;;7.10;;
74908;SDS011;63468;52.058;4.824;2023-04-03T10:18:40;8.00;;;7.20;;
74908;SDS011;63468;52.058;4.824;2023-04-03T10:21:19;8.60;;;7.70;;
74908;SDS011;63468;52.058;4.824;2023-04-03T10:32:29;8.93;;;7.88;;
74908;SDS011;63468;52.058;4.824;2023-04-03T10:35:20;7.80;;;7.10;;
74908;SDS011;63468;52.058;4.824;2023-04-03T10:40:51;8.43;;;7.22;;
74908;SDS011;63468;52.058;4.824;2023-04-03T10:43:26;8.05;;;7.35;;
74908;SDS011;63468;52.058;4.824;2023-04-03T10:46:04;8.38;;;7.57;;
74908;SDS011;63468;52.058;4.824;2023-04-03T10:48:38;8.23;;;7.43;;
74908;SDS011;63468;52.058;4.824;2023-04-03T10:56:47;8.70;;;7.90;;
74908;SDS011;63468;52.058;4.824;2023-04-03T11:01:49;8.52;;;7.72;;
74908;SDS011;63468;52.058;4.824;2023-04-03T11:04:17;8.00;;;7.30;;
74908;SDS011;63468;52.058;4.824;2023-04-03T11:07:01;8.63;;;7.82;;
74908;SDS011;63468;52.058;4.824;2023-04-03T11:09:35;8.57;;;7.63;;
74908;SDS011;63468;52.058;4.824;2023-04-03T11:14:32;8.43;;;7.63;;
74908;SDS011;63468;52.058;4.824;2023-04-03T11:19:37;8.10;;;7.40;;
74908;SDS011;63468;52.058;4.824;2023-04-03T11:24:41;9.00;;;8.20;;
74908;SDS011;63468;52.058;4.824;2023-04-03T11:27:11;8.23;;;7.47;;
74908;SDS011;63468;52.058;4.824;2023-04-03T11:29:41;8.10;;;7.40;;
74908;SDS011;63468;52.058;4.824;2023-04-03T11:34:42;8.13;;;7.32;;
74908;SDS011;63468;52.058;4.824;2023-04-03T11:37:13;8.48;;;7.78;;
74908;SDS011;63468;52.058;4.824;2023-04-03T11:39:55;8.23;;;7.47;;
74908;SDS011;63468;52.058;4.824;2023-04-03T11:42:32;7.93;;;7.20;;
74908;SDS011;63468;52.058;4.824;2023-04-03T12:05:53;8.20;;;7.40;;
74908;SDS011;63468;52.058;4.824;2023-04-03T12:19:03;7.70;;;6.90;;
74908;SDS011;63468;52.058;4.824;2023-04-03T12:26:26;8.23;;;7.43;;
74908;SDS011;63468;52.058;4.824;2023-04-03T12:28:53;9.65;;;7.93;;
74908;SDS011;63468;52.058;4.824;2023-04-03T12:31:19;8.02;;;7.32;;
74908;SDS011;63468;52.058;4.824;2023-04-03T12:36:17;8.50;;;7.70;;
74908;SDS011;63468;52.058;4.824;2023-04-03T12:41:38;9.35;;;7.97;;
74908;SDS011;63468;52.058;4.824;2023-04-03T12:46:39;8.68;;;7.85;;
74908;SDS011;63468;52.058;4.824;2023-04-03T12:49:42;8.55;;;7.30;;
74908;SDS011;63468;52.058;4.824;2023-04-03T12:52:03;8.25;;;7.45;;
74908;SDS011;63468;52.058;4.824;2023-04-03T12:54:37;8.93;;;8.02;;
74908;SDS011;63468;52.058;4.824;2023-04-03T12:59:52;8.70;;;7.90;;
74908;SDS011;63468;52.058;4.824;2023-04-03T13:02:27;8.15;;;7.35;;
74908;SDS011;63468;52.058;4.824;2023-04-03T13:04:55;8.68;;;7.88;;
74908;SDS011;63468;52.058;4.824;2023-04-03T13:07:24;8.80;;;8.00;;
74908;SDS011;63468;52.058;4.824;2023-04-03T13:09:55;9.43;;;8.52;;
74908;SDS011;63468;52.058;4.824;2023-04-03T13:12:25;8.93;;;8.02;;
74908;SDS011;63468;52.058;4.824;2023-04-03T13:14:54;8.55;;;7.45;;
74908;SDS011;63468;52.058;4.824;2023-04-03T13:17:22;9.48;;;8.15;;
74908;SDS011;63468;52.058;4.824;2023-04-03T13:19:48;8.07;;;7.30;;
74908;SDS011;63468;52.058;4.824;2023-04-03T13:24:56;8.10;;;7.30;;
74908;SDS011;63468;52.058;4.824;2023-04-03T13:27:23;8.68;;;7.88;;
74908;SDS011;63468;52.058;4.824;2023-04-03T13:29:52;10.85;;;9.20;;
74908;SDS011;63468;52.058;4.824;2023-04-03T13:32:20;8.52;;;7.60;;
74908;SDS011;63468;52.058;4.824;2023-04-03T13:34:47;8.05;;;7.25;;
74908;SDS011;63468;52.058;4.824;2023-04-03T13:37:20;9.27;;;7.50;;
74908;SDS011;63468;52.058;4.824;2023-04-03T13:39:57;8.40;;;7.60;;
74908;SDS011;63468;52.058;4.824;2023-04-03T13:42:29;8.27;;;7.47;;
74908;SDS011;63468;52.058;4.824;2023-04-03T13:50:33;8.52;;;7.70;;
74908;SDS011;63468;52.058;4.824;2023-04-03T13:53:03;10.02;;;8.48;;
74908;SDS011;63468;52.058;4.824;2023-04-03T13:55:36;8.80;;;7.70;;
74908;SDS011;63468;52.058;4.824;2023-04-03T13:58:16;9.38;;;8.10;;
74908;SDS011;63468;52.058;4.824;2023-04-03T14:00:48;8.40;;;7.60;;
74908;SDS011;63468;52.058;4.824;2023-04-03T14:03:19;8.52;;;7.70;;
74908;SDS011;63468;52.058;4.824;2023-04-03T14:05:46;8.73;;;7.82;;
74908;SDS011;63468;52.058;4.824;2023-04-03T14:08:12;8.52;;;7.60;;
74908;SDS011;63468;52.058;4.824;2023-04-03T14:10:37;9.10;;;8.20;;
74908;SDS011;63468;52.058;4.824;2023-04-03T14:13:03;12.15;;;7.82;;
74908;SDS011;63468;52.058;4.824;2023-04-03T14:15:29;8.50;;;7.70;;
74908;SDS011;63468;52.058;4.824;2023-04-03T14:17:56;9.73;;;7.90;;
74908;SDS011;63468;52.058;4.824;2023-04-03T14:20:23;8.48;;;7.38;;
74908;SDS011;63468;52.058;4.824;2023-04-03T14:22:50;8.52;;;7.18;;
74908;SDS011;63468;52.058;4.824;2023-04-03T14:25:16;8.52;;;7.68;;
74908;SDS011;63468;52.058;4.824;2023-04-03T14:27:46;8.63;;;7.72;;
74908;SDS011;63468;52.058;4.824;2023-04-03T14:30:15;9.90;;;8.23;;
74908;SDS011;63468;52.058;4.824;2023-04-03T14:32:48;8.50;;;7.68;;
74908;SDS011;63468;52.058;4.824;2023-04-03T14:35:15;9.68;;;7.15;;
74908;SDS011;63468;52.058;4.824;2023-04-03T14:37:40;10.00;;;7.65;;
74908;SDS011;63468;52.058;4.824;2023-04-03T14:40:06;9.13;;;7.93;;
74908;SDS011;63468;52.058;4.824;2023-04-03T14:42:35;8.20;;;7.38;;
74908;SDS011;63468;52.058;4.824;2023-04-03T14:45:02;9.32;;;7.43;;
74908;SDS011;63468;52.058;4.824;2023-04-03T14:47:31;10.32;;;7.68;;
74908;SDS011;63468;52.058;4.824;2023-04-03T14:49:56;7.97;;;7.18;;
74908;SDS011;63468;52.058;4.824;2023-04-03T14:52:24;10.27;;;7.72;;
74908;SDS011;63468;52.058;4.824;2023-04-03T14:54:52;8.40;;;7.47;;
74908;SDS011;63468;52.058;4.824;2023-04-03T14:57:18;9.95;;;7.78;;
74908;SDS011;63468;52.058;4.824;2023-04-03T14:59:44;9.25;;;7.20;;
74908;SDS011;63468;52.058;4.824;2023-04-03T15:04:58;9.48;;;7.18;;
74908;SDS011;63468;52.058;4.824;2023-04-03T15:07:26;9.85;;;7.05;;
74908;SDS011;63468;52.058;4.824;2023-04-03T15:09:52;8.88;;;8.02;;
74908;SDS011;63468;52.058;4.824;2023-04-03T15:12:21;8.43;;;6.97;;
74908;SDS011;63468;52.058;4.824;2023-04-03T15:14:46;8.07;;;6.80;;
74908;SDS011;63468;52.058;4.824;2023-04-03T15:17:15;8.85;;;7.15;;
74908;SDS011;63468;52.058;4.824;2023-04-03T15:19:42;8.93;;;7.22;;
74908;SDS011;63468;52.058;4.824;2023-04-03T15:22:14;8.55;;;7.03;;
74908;SDS011;63468;52.058;4.824;2023-04-03T15:24:42;9.93;;;6.75;;
74908;SDS011;63468;52.058;4.824;2023-04-03T15:27:08;8.13;;;6.80;;
74908;SDS011;63468;52.058;4.824;2023-04-03T15:29:34;8.20;;;7.07;;
74908;SDS011;63468;52.058;4.824;2023-04-03T15:31:59;10.15;;;7.28;;
74908;SDS011;63468;52.058;4.824;2023-04-03T15:34:25;10.05;;;6.93;;
74908;SDS011;63468;52.058;4.824;2023-04-03T15:36:50;9.60;;;7.00;;
74908;SDS011;63468;52.058;4.824;2023-04-03T15:39:17;9.73;;;7.20;;
74908;SDS011;63468;52.058;4.824;2023-04-03T15:41:42;7.82;;;6.32;;
74908;SDS011;63468;52.058;4.824;2023-04-03T15:44:08;7.75;;;6.15;;
74908;SDS011;63468;52.058;4.824;2023-04-03T15:46:33;8.45;;;6.55;;
74908;SDS011;63468;52.058;4.824;2023-04-03T15:48:58;12.18;;;6.75;;
74908;SDS011;63468;52.058;4.824;2023-04-03T15:51:24;7.75;;;6.40;;
74908;SDS011;63468;52.058;4.824;2023-04-03T15:53:49;8.75;;;6.40;;
74908;SDS011;63468;52.058;4.824;2023-04-03T15:56:15;10.23;;;7.10;;
74908;SDS011;63468;52.058;4.824;2023-04-03T15:58:40;7.95;;;6.40;;
74908;SDS011;63468;52.058;4.824;2023-04-03T16:01:08;8.07;;;6.40;;
74908;SDS011;63468;52.058;4.824;2023-04-03T16:03:34;9.82;;;6.65;;
74908;SDS011;63468;52.058;4.824;2023-04-03T16:06:00;7.30;;;6.22;;
74908;SDS011;63468;52.058;4.824;2023-04-03T16:08:26;10.60;;;6.65;;
74908;SDS011;63468;52.058;4.824;2023-04-03T16:10:52;7.65;;;6.35;;
74908;SDS011;63468;52.058;4.824;2023-04-03T16:13:17;9.10;;;6.25;;
74908;SDS011;63468;52.058;4.824;2023-04-03T16:15:43;11.35;;;6.55;;
74908;SDS011;63468;52.058;4.824;2023-04-03T16:18:08;8.88;;;6.55;;
74908;SDS011;63468;52.058;4.824;2023-04-03T16:20:34;9.73;;;6.88;;
74908;SDS011;63468;52.058;4.824;2023-04-03T16:23:00;7.82;;;6.50;;
74908;SDS011;63468;52.058;4.824;2023-04-03T16:25:25;7.72;;;6.63;;
74908;SDS011;63468;52.058;4.824;2023-04-03T16:27:51;7.50;;;6.40;;
74908;SDS011;63468;52.058;4.824;2023-04-03T16:30:17;9.65;;;6.57;;
74908;SDS011;63468;52.058;4.824;2023-04-03T16:32:42;8.77;;;6.60;;
74908;SDS011;63468;52.058;4.824;2023-04-03T16:35:08;7.80;;;7.00;;
74908;SDS011;63468;52.058;4.824;2023-04-03T16:37:35;9.15;;;6.20;;
74908;SDS011;63468;52.058;4.824;2023-04-03T16:40:01;9.13;;;6.43;;